Time;durP1;ratioP1;P1;durP2;ratioP2;P2;SDS_P1;SDS_P2;PMS_P1;PMS_P2;Temp;Humidity;BMP_temperature;BMP_pressure;BME280_temperature;BME280_humidity;BME280_pressure;Samples;Min_cycle;Max_cycle;Signal;HPM_P1;HPM_P2
2022/12/26 00:02:10;;;;;;;;;3.33;3.33;;;;;14.51;68.12;100923.59;5033428;28;55935;-62
2022/12/26 00:04:36;;;;;;;;;3.00;2.33;;;;;14.48;68.35;100919.94;5029155;28;45965;-62
2022/12/26 00:07:02;;;;;;;;;4.00;3.67;;;;;14.55;68.12;100929.91;5034583;28;45486;-63
2022/12/26 00:09:27;;;;;;;;;5.33;4.00;;;;;14.41;67.98;100901.94;5027936;28;46273;-61
2022/12/26 00:11:52;;;;;;;;;4.00;4.00;;;;;14.48;68.34;100912.78;5032527;28;45634;-62
2022/12/26 00:14:18;;;;;;;;;5.67;2.67;;;;;14.45;68.28;100907.41;5039042;28;45650;-61
2022/12/26 00:16:44;;;;;;;;;3.00;3.00;;;;;14.55;68.73;100919.13;5038695;28;45421;-62
2022/12/26 00:19:10;;;;;;;;;4.00;4.00;;;;;14.56;68.81;100929.03;5037378;28;46808;-61
2022/12/26 00:21:36;;;;;;;;;7.67;3.67;;;;;14.45;68.87;100920.84;5037234;28;45524;-62
2022/12/26 00:24:02;;;;;;;;;4.00;4.00;;;;;14.54;69.00;100922.72;5034370;28;45506;-62
2022/12/26 00:26:30;;;;;;;;;6.00;4.00;;;;;14.51;69.00;100928.94;5036998;28;45517;-62
2022/12/26 00:28:56;;;;;;;;;3.67;3.67;;;;;14.54;69.16;100941.56;5035382;28;45732;-61
2022/12/26 00:31:24;;;;;;;;;5.00;3.67;;;;;14.47;69.25;100935.19;5034666;28;45586;-61
2022/12/26 00:33:50;;;;;;;;;8.00;5.67;;;;;14.43;69.41;100924.38;5035438;28;45497;-61
2022/12/26 00:36:20;;;;;;;;;5.33;4.33;;;;;14.41;69.65;100913.59;5034445;28;45533;-62
2022/12/26 00:38:46;;;;;;;;;5.67;4.00;;;;;14.44;69.47;100920.81;5030973;28;46227;-62
2022/12/26 00:41:12;;;;;;;;;7.00;5.33;;;;;14.46;69.91;100936.06;5034769;28;45741;-60
2022/12/26 00:43:38;;;;;;;;;3.67;3.67;;;;;14.48;69.58;100918.16;5038002;28;45538;-60
2022/12/26 00:46:04;;;;;;;;;5.33;4.67;;;;;14.47;69.24;100921.75;5036548;28;45481;-59
2022/12/26 00:48:30;;;;;;;;;4.67;2.00;;;;;14.47;69.32;100932.50;5015213;28;47152;-63
2022/12/26 00:50:56;;;;;;;;;9.00;4.00;;;;;14.36;69.35;100926.06;5035926;28;46199;-64
2022/12/26 00:53:24;;;;;;;;;4.00;4.00;;;;;14.36;69.29;100936.81;5037149;28;45428;-63
2022/12/26 00:55:50;;;;;;;;;6.33;4.00;;;;;14.32;69.51;100932.28;5037300;28;45510;-64
2022/12/26 00:58:16;;;;;;;;;10.00;4.00;;;;;14.40;69.22;100937.75;5035827;28;46094;-62
2022/12/26 01:00:41;;;;;;;;;4.00;4.00;;;;;14.31;69.62;100912.56;5032324;28;45604;-61
2022/12/26 01:03:08;;;;;;;;;5.00;4.00;;;;;14.30;69.25;100900.00;5029459;28;45741;-64
2022/12/26 01:05:33;;;;;;;;;4.00;2.67;;;;;14.37;69.09;100926.09;5031857;28;45436;-62
2022/12/26 01:07:58;;;;;;;;;7.00;2.00;;;;;14.30;69.06;100916.13;5033913;28;45482;-62
2022/12/26 01:10:24;;;;;;;;;6.67;3.00;;;;;14.34;69.26;100936.81;5030541;28;45340;-62
2022/12/26 01:12:50;;;;;;;;;4.67;3.00;;;;;14.34;69.37;100933.22;5030006;28;45502;-64
2022/12/26 01:15:16;;;;;;;;;6.33;3.00;;;;;14.20;69.81;100924.94;5036911;28;45832;-63
2022/12/26 01:17:41;;;;;;;;;2.00;2.00;;;;;14.27;68.79;100948.34;5036972;28;45602;-62
2022/12/26 01:20:07;;;;;;;;;4.00;2.33;;;;;14.22;68.94;100958.09;5036241;28;45513;-62
2022/12/26 01:22:32;;;;;;;;;3.00;2.00;;;;;14.16;69.09;100961.63;5036462;28;45419;-61
2022/12/26 01:24:58;;;;;;;;;3.33;1.33;;;;;14.17;69.31;100965.19;5036963;28;45773;-62
2022/12/26 01:27:25;;;;;;;;;2.33;2.00;;;;;14.10;69.58;100942.72;5039261;28;47960;-61
2022/12/26 01:29:52;;;;;;;;;3.00;3.00;;;;;14.18;68.93;100956.28;5037946;28;45502;-60
2022/12/26 01:32:18;;;;;;;;;5.00;4.67;;;;;14.12;69.21;100945.41;5033710;28;45462;-60
2022/12/26 01:34:44;;;;;;;;;4.00;3.67;;;;;14.14;69.43;100949.06;5036893;28;45530;-61
2022/12/26 01:37:13;;;;;;;;;5.00;2.00;;;;;14.15;69.20;100950.84;5033450;28;45441;-60
2022/12/26 01:39:38;;;;;;;;;3.33;2.00;;;;;14.07;69.65;100939.09;5036277;28;45407;-61
2022/12/26 01:42:18;;;;;;;;;2.67;2.67;;;;;14.15;69.29;100964.28;5036357;28;45397;-62
2022/12/26 01:45:16;;;;;;;;;2.00;1.33;;;;;14.15;69.18;100972.34;5032703;28;45756;-60
2022/12/26 01:47:47;;;;;;;;;2.00;1.67;;;;;14.06;69.26;100969.53;5035412;28;45340;-62
2022/12/26 01:50:24;;;;;;;;;1.67;1.00;;;;;14.10;69.15;100988.38;5033747;28;45520;-62
2022/12/26 01:52:51;;;;;;;;;2.00;2.00;;;;;14.02;69.11;101000.78;5036020;28;45430;-61
2022/12/26 01:55:19;;;;;;;;;5.00;2.00;;;;;14.00;69.39;101007.94;5036528;28;45353;-61
2022/12/26 01:57:53;;;;;;;;;3.00;2.00;;;;;14.01;69.72;101023.19;5034755;28;47335;-61
2022/12/26 02:00:18;;;;;;;;;1.00;1.00;;;;;13.98;69.46;101007.00;5030054;28;45513;-59
2022/12/26 02:05:33;;;;;;;;;2.00;2.00;;;;;14.01;69.46;101026.75;5034828;28;45431;-62
2022/12/26 02:08:00;;;;;;;;;3.33;1.00;;;;;13.92;69.44;100999.72;5030725;28;45596;-61
2022/12/26 02:10:28;;;;;;;;;4.33;1.00;;;;;13.97;69.33;100999.81;5035136;28;45237;-61
2022/12/26 02:12:54;;;;;;;;;3.67;2.00;;;;;13.99;69.33;101003.44;5035819;28;45534;-61
2022/12/26 02:15:19;;;;;;;;;2.00;1.33;;;;;13.56;69.23;100931.13;5034177;28;45420;-62
2022/12/26 02:17:44;;;;;;;;;1.00;1.00;;;;;13.99;69.69;101012.41;5034742;28;45715;-63
2022/12/26 02:20:17;;;;;;;;;3.67;2.00;;;;;13.99;69.81;100998.06;5033857;28;50744;-62
2022/12/26 02:22:48;;;;;;;;;1.00;1.00;;;;;13.99;69.64;100990.00;5029678;28;45443;-59
2022/12/26 02:25:32;;;;;;;;;1.00;1.00;;;;;14.01;69.92;100977.53;5034079;28;45658;-62
2022/12/26 02:28:32;;;;;;;;;1.00;1.00;;;;;14.04;69.63;100991.00;5034104;28;45312;-64
2022/12/26 02:30:57;;;;;;;;;1.33;1.00;;;;;14.06;69.83;100991.03;5029637;28;45380;-63
2022/12/26 02:33:38;;;;;;;;;3.00;1.67;;;;;14.01;69.62;101004.38;5032730;28;45487;-65
2022/12/26 02:36:22;;;;;;;;;4.00;1.00;;;;;14.04;69.69;101011.56;5035959;28;45396;-62
2022/12/26 02:39:24;;;;;;;;;2.00;1.00;;;;;14.05;69.95;101016.06;5030726;28;45637;-61
2022/12/26 02:42:30;;;;;;;;;4.67;1.00;;;;;14.01;69.53;101005.28;5024312;28;45517;-61
2022/12/26 02:48:19;;;;;;;;;1.67;1.33;;;;;14.06;68.90;100986.56;5035402;28;45701;-64
2022/12/26 03:14:51;;;;;;;;;0.00;0.00;;;;;14.03;69.31;100993.66;5033741;28;45429;-63
2022/12/26 03:17:40;;;;;;;;;2.00;1.00;;;;;13.97;68.97;100981.00;5034026;28;45502;-62
2022/12/26 03:20:20;;;;;;;;;1.00;1.00;;;;;14.01;69.52;100985.56;5016246;28;45395;-62
2022/12/26 03:23:11;;;;;;;;;3.67;0.00;;;;;13.92;69.44;100963.94;5032329;28;45439;-62
2022/12/26 03:28:37;;;;;;;;;3.00;1.00;;;;;13.85;68.95;100964.72;5032498;28;45642;-61
2022/12/26 03:31:09;;;;;;;;;2.33;0.00;;;;;13.98;69.11;100993.56;5031733;28;45561;-64
2022/12/26 03:36:40;;;;;;;;;0.33;0.33;;;;;13.95;68.79;100985.47;5031846;28;45402;-62
2022/12/26 04:44:10;;;;;;;;;0.00;0.00;;;;;13.78;68.67;101029.06;5033649;28;45566;-60
2022/12/26 04:46:40;;;;;;;;;1.00;0.00;;;;;13.86;69.05;101041.69;5032917;28;46433;-61
2022/12/26 04:51:58;;;;;;;;;2.00;0.00;;;;;13.65;69.08;101021.66;5030977;28;45377;-63
2022/12/26 04:54:24;;;;;;;;;0.00;0.00;;;;;13.82;69.17;101056.88;5028503;28;45578;-62
2022/12/26 04:56:49;;;;;;;;;2.00;0.33;;;;;13.83;68.43;101077.50;5028283;28;46561;-63
2022/12/26 04:59:15;;;;;;;;;2.00;0.00;;;;;13.80;68.83;101080.13;5035470;28;45577;-63
2022/12/26 05:10:02;;;;;;;;;6.00;6.00;;;;;13.80;69.09;101077.44;5035912;28;45532;-65
2022/12/26 05:12:27;;;;;;;;;2.00;0.00;;;;;13.75;69.26;101081.81;5034362;28;45567;-63
2022/12/26 05:14:53;;;;;;;;;0.00;0.00;;;;;13.70;69.01;101067.41;5037376;28;45717;-63
2022/12/26 05:31:04;;;;;;;;;0.00;0.00;;;;;13.60;68.90;101069.91;5036995;28;45587;-61
2022/12/26 05:36:16;;;;;;;;;1.67;1.00;;;;;13.63;68.52;101093.22;5036948;28;46961;-63
2022/12/26 05:38:41;;;;;;;;;0.33;0.00;;;;;13.51;68.87;101076.88;5038534;28;46326;-62
2022/12/26 05:41:06;;;;;;;;;1.00;1.00;;;;;13.56;68.82;101102.00;5035335;28;45538;-62
2022/12/26 05:43:32;;;;;;;;;1.00;1.00;;;;;13.55;69.36;101108.28;5029414;28;45327;-61
2022/12/26 05:45:57;;;;;;;;;2.00;1.00;;;;;13.55;68.80;101113.66;5032717;28;45448;-63
2022/12/26 05:48:23;;;;;;;;;1.00;1.00;;;;;13.48;69.41;101111.69;5035903;28;46335;-60
2022/12/26 05:50:48;;;;;;;;;0.00;0.00;;;;;13.45;68.83;101101.81;5031491;28;45505;-64
2022/12/26 05:53:13;;;;;;;;;1.00;1.00;;;;;13.49;69.31;101127.84;5036629;28;45681;-62
2022/12/26 05:55:39;;;;;;;;;1.00;1.00;;;;;13.49;68.70;101135.00;5032726;28;52414;-63
2022/12/26 05:58:04;;;;;;;;;1.00;1.00;;;;;13.46;69.36;101125.06;5036516;28;45329;-64
2022/12/26 06:00:30;;;;;;;;;2.33;1.67;;;;;13.50;69.52;101135.03;5036482;28;45461;-62
2022/12/26 06:02:58;;;;;;;;;1.00;1.00;;;;;13.53;68.59;101136.84;5029409;28;45511;-63
2022/12/26 06:05:24;;;;;;;;;1.00;1.00;;;;;13.54;68.02;101141.34;5036166;28;45391;-63
2022/12/26 06:07:49;;;;;;;;;1.00;1.00;;;;;13.40;68.00;101107.09;5033288;28;45595;-62
2022/12/26 06:10:14;;;;;;;;;1.00;1.00;;;;;13.56;68.27;101134.22;5035037;28;45492;-61
2022/12/26 06:12:39;;;;;;;;;0.00;0.00;;;;;13.56;67.21;101126.19;5035194;28;45576;-61
2022/12/26 06:15:06;;;;;;;;;1.00;1.00;;;;;13.55;67.47;101127.97;5036047;28;45914;-60
2022/12/26 06:17:31;;;;;;;;;3.00;3.00;;;;;13.55;67.26;101125.28;5035480;28;45538;-61
2022/12/26 06:19:56;;;;;;;;;4.00;0.00;;;;;13.54;67.78;101114.50;5035156;28;45439;-62
2022/12/26 06:22:22;;;;;;;;;0.00;0.00;;;;;13.55;67.23;101121.69;5031941;28;46019;-62
2022/12/26 06:24:47;;;;;;;;;2.00;1.00;;;;;13.44;67.23;101108.94;5033303;28;45383;-60
2022/12/26 06:27:12;;;;;;;;;0.00;0.00;;;;;13.44;66.94;101102.69;5029797;28;55892;-65
2022/12/26 06:29:38;;;;;;;;;1.33;1.00;;;;;13.42;66.53;101099.97;5035407;28;59156;-63
2022/12/26 06:32:03;;;;;;;;;1.67;1.00;;;;;13.31;67.45;101092.53;5030750;28;45366;-65
2022/12/26 06:34:29;;;;;;;;;0.00;0.00;;;;;13.39;67.02;101113.31;5032790;28;45563;-64
2022/12/26 06:36:54;;;;;;;;;1.00;0.67;;;;;13.41;66.88;101129.44;5034362;28;46450;-63
2022/12/26 06:39:20;;;;;;;;;1.00;1.00;;;;;13.27;67.15;101103.19;5037632;28;45267;-64
2022/12/26 06:41:45;;;;;;;;;2.00;2.00;;;;;13.37;66.71;101138.31;5035709;28;45380;-64
2022/12/26 06:44:10;;;;;;;;;0.00;0.00;;;;;13.32;66.99;101129.25;5029796;28;45457;-63
2022/12/26 06:46:36;;;;;;;;;1.00;0.00;;;;;13.31;66.92;101144.41;5032827;28;45407;-63
2022/12/26 06:49:01;;;;;;;;;1.67;1.67;;;;;13.34;66.53;101155.25;5033672;28;49151;-64
2022/12/26 06:51:27;;;;;;;;;1.33;1.00;;;;;13.25;66.90;101147.88;5030559;28;46407;-64
2022/12/26 06:53:53;;;;;;;;;2.33;0.67;;;;;13.16;66.50;101128.88;5033367;28;45400;-63
2022/12/26 06:56:22;;;;;;;;;0.67;0.67;;;;;13.32;67.41;101162.38;5033569;28;45537;-62
2022/12/26 06:58:55;;;;;;;;;1.00;1.00;;;;;13.18;67.06;101145.97;5031691;28;45451;-62
2022/12/26 07:01:22;;;;;;;;;2.00;2.00;;;;;13.27;66.96;101164.03;5034047;28;45543;-63
2022/12/26 07:03:50;;;;;;;;;2.00;0.00;;;;;13.30;67.33;101163.16;5028417;28;45471;-63
2022/12/26 07:06:15;;;;;;;;;1.00;1.00;;;;;13.30;67.73;101173.91;5033913;28;46734;-62
2022/12/26 07:08:40;;;;;;;;;6.67;3.00;;;;;13.25;67.54;101164.00;5024266;28;45297;-64
2022/12/26 07:11:23;;;;;;;;;3.00;1.33;;;;;13.32;67.05;101182.91;5032673;28;45462;-64
2022/12/26 07:13:48;;;;;;;;;1.00;1.00;;;;;13.31;67.64;101170.34;5033183;28;45457;-64
2022/12/26 07:16:14;;;;;;;;;4.67;2.67;;;;;13.33;66.45;101176.69;5033415;28;45316;-61
2022/12/26 07:18:40;;;;;;;;;1.00;1.00;;;;;13.38;67.05;101184.00;5038542;28;45567;-65
2022/12/26 07:21:07;;;;;;;;;1.00;1.00;;;;;13.39;66.61;101190.25;5038565;28;44793;-69
2022/12/26 07:23:33;;;;;;;;;3.00;1.33;;;;;13.35;66.79;101186.59;5025362;28;45530;-71
2022/12/26 07:25:59;;;;;;;;;1.00;1.00;;;;;13.27;66.86;101185.50;5030450;28;45577;-75
2022/12/26 07:28:25;;;;;;;;;1.67;1.00;;;;;13.32;66.67;101197.25;5034519;28;45478;-74
2022/12/26 07:30:51;;;;;;;;;2.00;1.00;;;;;13.33;66.87;101209.81;5036907;28;45383;-66
2022/12/26 07:33:16;;;;;;;;;4.00;2.00;;;;;13.23;66.87;101179.16;5032510;28;45377;-72
2022/12/26 07:35:42;;;;;;;;;5.00;1.67;;;;;13.25;66.79;101174.72;5034494;28;45612;-71
2022/12/26 07:38:08;;;;;;;;;1.67;1.00;;;;;13.31;66.76;101199.88;5015794;28;45670;-70
2022/12/26 07:40:33;;;;;;;;;2.00;2.00;;;;;13.33;67.18;101211.56;5032128;28;45607;-74
2022/12/26 07:42:59;;;;;;;;;1.67;0.67;;;;;13.28;67.11;101204.31;5034073;28;45538;-65
2022/12/26 07:45:24;;;;;;;;;6.67;2.67;;;;;13.31;67.64;101206.13;5033654;28;46555;-62
2022/12/26 07:47:54;;;;;;;;;3.00;2.00;;;;;13.31;67.45;101213.28;5033841;28;45474;-63
2022/12/26 07:50:19;;;;;;;;;5.33;1.00;;;;;13.27;66.92;101221.28;5034076;28;45504;-62
2022/12/26 07:52:44;;;;;;;;;2.00;1.00;;;;;13.28;66.61;101224.84;5032192;28;45429;-63
2022/12/26 07:55:10;;;;;;;;;1.00;1.00;;;;;13.18;67.26;101204.06;5029881;28;46375;-63
2022/12/26 07:57:35;;;;;;;;;1.33;1.00;;;;;13.28;67.67;101231.16;5028642;28;45341;-63
2022/12/26 08:00:01;;;;;;;;;1.00;1.00;;;;;13.28;67.08;101233.81;5034095;28;45591;-62
2022/12/26 08:02:27;;;;;;;;;2.00;2.00;;;;;13.21;67.27;101221.13;5028161;28;45874;-64
2022/12/26 08:04:52;;;;;;;;;4.00;3.00;;;;;13.23;67.14;101230.13;5036044;28;45414;-65
2022/12/26 08:07:17;;;;;;;;;4.33;2.00;;;;;13.22;67.71;101230.09;5040000;28;45395;-63
2022/12/26 08:09:44;;;;;;;;;3.00;3.00;;;;;13.23;67.17;101226.53;5033706;28;45402;-63
2022/12/26 08:12:09;;;;;;;;;4.67;2.33;;;;;13.18;67.15;101214.78;5033778;28;45499;-64
2022/12/26 08:14:38;;;;;;;;;3.33;1.33;;;;;13.33;67.39;101239.34;5032697;28;46043;-62
2022/12/26 08:17:03;;;;;;;;;1.00;1.00;;;;;13.27;67.35;101223.06;5034372;28;45533;-63
2022/12/26 08:19:29;;;;;;;;;6.00;3.00;;;;;13.34;67.35;101243.81;5034216;28;45829;-64
2022/12/26 08:21:54;;;;;;;;;6.00;3.00;;;;;13.35;66.67;101248.31;5033493;28;45602;-62
2022/12/26 08:24:19;;;;;;;;;2.00;2.00;;;;;13.27;67.25;101228.44;5032288;28;61686;-64
2022/12/26 08:26:45;;;;;;;;;4.00;2.33;;;;;13.30;67.65;101233.88;5029058;28;45596;-64
2022/12/26 08:29:10;;;;;;;;;2.00;2.00;;;;;13.39;67.17;101251.97;5032772;28;45502;-62
2022/12/26 08:31:35;;;;;;;;;2.00;1.67;;;;;13.36;66.63;101255.47;5031898;28;45375;-62
2022/12/26 08:34:01;;;;;;;;;5.67;3.00;;;;;13.38;66.56;101261.81;5039081;28;46186;-64
2022/12/26 08:36:26;;;;;;;;;5.00;5.00;;;;;13.36;67.55;101258.16;5032745;28;45374;-64
2022/12/26 08:38:52;;;;;;;;;1.67;1.00;;;;;13.44;67.23;101277.16;5034739;28;45661;-68
2022/12/26 08:41:18;;;;;;;;;3.00;3.00;;;;;13.30;66.56;101255.34;5032945;28;45336;-66
2022/12/26 08:43:47;;;;;;;;;3.67;1.33;;;;;13.47;66.43;101276.31;5035337;28;46283;-67
2022/12/26 08:46:12;;;;;;;;;3.00;1.00;;;;;13.17;66.34;101227.31;5031883;28;45588;-66
2022/12/26 08:48:40;;;;;;;;;4.67;2.00;;;;;13.42;66.73;101285.16;5036450;28;45643;-67
2022/12/26 08:51:10;;;;;;;;;3.00;1.00;;;;;13.39;66.83;101276.13;5036682;28;45421;-66
2022/12/26 08:53:36;;;;;;;;;1.00;1.00;;;;;13.38;65.94;101288.66;5036000;28;45553;-65
2022/12/26 08:56:04;;;;;;;;;1.67;1.33;;;;;13.30;66.74;101281.25;5035984;28;45546;-66
2022/12/26 08:58:30;;;;;;;;;6.00;1.00;;;;;13.41;66.41;101293.19;5034979;28;45419;-66
2022/12/26 09:01:14;;;;;;;;;2.00;2.00;;;;;13.41;66.39;101301.22;5036178;28;45423;-65
2022/12/26 09:03:40;;;;;;;;;3.33;2.00;;;;;13.41;66.20;101296.78;5035973;28;46309;-65
2022/12/26 09:06:06;;;;;;;;;3.00;1.00;;;;;13.43;66.66;101308.47;5035858;28;46416;-66
2022/12/26 09:08:33;;;;;;;;;2.33;1.33;;;;;13.44;66.01;101315.63;5029652;28;45472;-66
2022/12/26 09:11:10;;;;;;;;;5.00;3.33;;;;;13.44;66.14;101326.34;5036215;28;45781;-66
2022/12/26 09:13:36;;;;;;;;;2.00;2.00;;;;;13.44;66.41;101321.00;5036200;28;45455;-68
2022/12/26 09:16:14;;;;;;;;;2.00;2.00;;;;;13.47;66.14;101319.28;5036011;28;45451;-67
2022/12/26 09:18:40;;;;;;;;;1.00;1.00;;;;;13.50;66.29;101332.78;5038047;28;45458;-65
2022/12/26 09:21:07;;;;;;;;;4.33;2.00;;;;;13.49;66.47;101334.53;5034686;28;45639;-66
2022/12/26 09:23:34;;;;;;;;;3.00;2.00;;;;;13.46;65.88;101329.06;5033939;28;46119;-67
2022/12/26 09:26:14;;;;;;;;;2.00;0.00;;;;;13.07;66.27;101265.53;5035807;28;45537;-66
2022/12/26 09:28:40;;;;;;;;;4.00;2.67;;;;;13.57;65.67;101340.09;5035563;28;45395;-67
2022/12/26 09:31:10;;;;;;;;;2.00;2.00;;;;;13.60;65.50;101345.53;5033105;28;45387;-67
2022/12/26 09:33:38;;;;;;;;;1.67;1.67;;;;;13.56;65.68;101327.53;5035435;28;46501;-67
2022/12/26 09:36:10;;;;;;;;;1.00;1.00;;;;;13.53;65.18;101320.31;5035509;28;45517;-66
2022/12/26 09:38:35;;;;;;;;;1.00;1.00;;;;;13.67;65.64;101335.84;5032169;28;45454;-66
2022/12/26 09:41:19;;;;;;;;;3.00;2.00;;;;;13.68;65.60;101346.63;5017526;28;45347;-66
2022/12/26 09:43:56;;;;;;;;;1.67;1.67;;;;;13.67;65.10;101352.84;5032566;28;46409;-66
2022/12/26 09:46:29;;;;;;;;;2.33;2.00;;;;;13.64;65.85;101344.72;5035377;28;45384;-65
2022/12/26 09:49:05;;;;;;;;;3.67;1.00;;;;;13.63;65.76;101345.59;5030668;28;45418;-67
2022/12/26 09:51:33;;;;;;;;;1.67;1.67;;;;;13.71;65.49;101353.81;5035352;28;45496;-67
2022/12/26 09:54:02;;;;;;;;;3.67;3.00;;;;;13.68;65.63;101348.38;5029856;28;45382;-65
2022/12/26 09:56:32;;;;;;;;;3.00;2.33;;;;;13.75;65.32;101367.38;5015923;28;45372;-66
2022/12/26 09:59:04;;;;;;;;;3.00;2.00;;;;;13.66;65.60;101345.69;5029128;28;45520;-66
2022/12/26 10:01:34;;;;;;;;;3.33;2.33;;;;;13.76;65.78;101362.88;5030322;28;45551;-66
2022/12/26 10:04:06;;;;;;;;;5.00;3.67;;;;;13.76;65.37;101361.13;5034281;28;47581;-66
2022/12/26 10:06:35;;;;;;;;;1.00;1.00;;;;;13.81;65.56;101366.63;5034926;28;45649;-66
2022/12/26 10:09:35;;;;;;;;;3.67;2.00;;;;;13.83;65.67;101370.22;5035042;28;45630;-65
2022/12/26 10:12:34;;;;;;;;;3.00;3.00;;;;;13.86;65.16;101378.38;5034732;28;45381;-65
2022/12/26 10:15:21;;;;;;;;;2.00;2.00;;;;;13.88;65.20;101371.25;5029447;28;46151;-66
2022/12/26 10:18:05;;;;;;;;;3.00;2.00;;;;;13.90;65.12;101374.88;5033191;28;45450;-66
2022/12/26 10:20:51;;;;;;;;;3.00;2.00;;;;;13.94;65.12;101374.06;5034793;28;45515;-66
2022/12/26 10:23:33;;;;;;;;;3.33;2.00;;;;;13.96;64.78;101376.81;5035415;28;45476;-66
2022/12/26 10:26:21;;;;;;;;;4.00;3.00;;;;;13.99;64.75;101369.72;5031433;28;45927;-66
2022/12/26 10:29:01;;;;;;;;;2.00;2.00;;;;;14.00;64.65;101367.91;5031833;28;45520;-67
2022/12/26 10:31:40;;;;;;;;;3.00;3.00;;;;;14.03;64.84;101368.00;5035068;28;45661;-66
2022/12/26 10:34:26;;;;;;;;;4.33;1.00;;;;;14.04;64.36;101368.88;5034208;28;45509;-67
2022/12/26 10:37:03;;;;;;;;;1.33;1.00;;;;;14.03;64.18;101372.47;5034586;28;45623;-66
2022/12/26 10:39:46;;;;;;;;;2.67;2.00;;;;;14.04;63.80;101364.44;5015313;28;45989;-66
2022/12/26 10:42:23;;;;;;;;;0.67;0.67;;;;;14.05;64.15;101366.25;5032695;28;45594;-66
2022/12/26 10:44:48;;;;;;;;;2.00;2.00;;;;;13.88;63.99;101343.50;5031338;28;45551;-65
2022/12/26 10:47:32;;;;;;;;;2.33;2.33;;;;;14.07;63.95;101367.16;5033031;28;45524;-67
2022/12/26 10:49:58;;;;;;;;;4.00;3.00;;;;;14.10;63.56;101374.41;5028838;28;45360;-67
2022/12/26 10:52:32;;;;;;;;;2.67;2.00;;;;;13.93;63.65;101349.88;5034629;28;45710;-67
2022/12/26 10:54:59;;;;;;;;;4.33;2.00;;;;;14.09;63.94;101369.91;5028621;28;45524;-67
2022/12/26 10:57:29;;;;;;;;;2.67;1.00;;;;;13.95;64.07;101345.44;5034399;28;45626;-68
2022/12/26 10:59:55;;;;;;;;;3.00;3.00;;;;;13.99;63.77;101360.72;5034492;28;45391;-65
2022/12/26 11:02:26;;;;;;;;;3.33;2.33;;;;;14.05;64.00;101368.94;5034067;28;45307;-67
2022/12/26 11:04:58;;;;;;;;;5.67;5.67;;;;;14.12;63.71;101375.34;5034270;28;45471;-67
2022/12/26 11:07:26;;;;;;;;;3.00;2.00;;;;;14.10;63.57;101369.94;5033435;28;45642;-67
2022/12/26 11:09:57;;;;;;;;;2.67;2.67;;;;;14.05;63.50;101366.25;5017415;28;45492;-66
2022/12/26 11:12:42;;;;;;;;;1.00;1.00;;;;;14.03;63.41;101359.94;5034056;28;46231;-66
2022/12/26 11:15:27;;;;;;;;;0.67;0.67;;;;;14.13;63.21;101382.53;5036211;28;45394;-67
2022/12/26 11:18:05;;;;;;;;;3.33;2.33;;;;;14.10;63.44;101367.25;5027875;28;46239;-66
2022/12/26 11:20:30;;;;;;;;;4.00;4.00;;;;;14.15;63.28;101378.09;5028402;28;45588;-66
2022/12/26 11:23:23;;;;;;;;;4.00;4.00;;;;;14.17;63.29;101376.34;5034305;28;45525;-67
2022/12/26 11:25:51;;;;;;;;;2.00;0.67;;;;;14.21;62.80;101371.97;5014123;28;45347;-67
2022/12/26 11:28:24;;;;;;;;;3.00;2.00;;;;;14.15;62.62;101365.56;5033136;28;45635;-67
2022/12/26 11:30:49;;;;;;;;;3.00;1.33;;;;;14.12;62.63;101352.09;5032152;28;45490;-65
2022/12/26 11:33:24;;;;;;;;;1.00;1.00;;;;;14.19;62.76;101366.56;5033498;28;45516;-65
2022/12/26 11:35:52;;;;;;;;;3.00;3.00;;;;;14.24;62.36;101367.56;5033913;28;45519;-68
2022/12/26 11:38:35;;;;;;;;;5.00;4.33;;;;;14.25;62.39;101368.47;5033670;28;45922;-67
2022/12/26 11:43:51;;;;;;;;;0.00;0.00;;;;;14.21;61.72;101383.63;5031262;28;45499;-66
2022/12/26 11:46:17;;;;;;;;;2.33;2.33;;;;;14.22;62.27;101390.78;5015685;28;45360;-66
2022/12/26 11:48:49;;;;;;;;;5.67;4.33;;;;;14.19;62.16;101390.75;5033314;28;45410;-67
2022/12/26 11:51:14;;;;;;;;;1.67;1.67;;;;;14.16;61.84;101388.00;5015467;28;45422;-65
2022/12/26 11:53:40;;;;;;;;;4.00;2.00;;;;;14.13;61.85;101380.75;5034055;28;45383;-67
2022/12/26 11:56:07;;;;;;;;;5.67;3.33;;;;;14.06;62.01;101368.06;5024505;28;45278;-67
2022/12/26 11:58:34;;;;;;;;;4.67;3.00;;;;;14.20;62.03;101381.78;5030879;28;46268;-68
2022/12/26 12:00:59;;;;;;;;;4.33;2.00;;;;;14.19;61.88;101390.75;5034024;28;45637;-66
2022/12/26 12:03:40;;;;;;;;;4.00;1.00;;;;;14.12;60.95;101413.88;5032852;28;46091;-67
2022/12/26 12:06:32;;;;;;;;;2.00;2.00;;;;;14.01;61.31;101418.09;5033558;28;45350;-66
2022/12/26 12:09:10;;;;;;;;;3.33;3.00;;;;;13.97;61.19;101432.31;5037410;28;46295;-67
2022/12/26 12:11:53;;;;;;;;;5.00;3.00;;;;;13.95;63.48;101423.34;5036620;28;45462;-68
2022/12/26 12:14:28;;;;;;;;;1.33;1.33;;;;;13.90;64.31;101427.69;5021082;28;45377;-67
2022/12/26 12:17:00;;;;;;;;;2.33;1.00;;;;;13.74;64.70;101426.41;5034589;28;45512;-66
2022/12/26 12:19:44;;;;;;;;;2.00;0.00;;;;;13.64;66.25;101418.16;5036804;28;45439;-66
2022/12/26 12:22:51;;;;;;;;;16.33;11.67;;;;;13.66;66.30;101430.69;5036552;28;45606;-65
2022/12/26 12:25:39;;;;;;;;;2.67;2.00;;;;;13.66;66.93;101436.97;5035950;28;45459;-67
2022/12/26 12:28:17;;;;;;;;;3.00;2.00;;;;;13.61;67.50;101431.50;5037357;28;45421;-67
2022/12/26 12:30:54;;;;;;;;;9.33;7.33;;;;;13.66;67.35;101441.41;5031180;28;46285;-67
2022/12/26 12:33:47;;;;;;;;;1.33;1.00;;;;;13.63;67.30;101442.28;5036577;28;45630;-66
2022/12/26 12:36:26;;;;;;;;;5.00;2.00;;;;;13.50;67.28;101451.78;5035390;28;45444;-67
2022/12/26 12:39:10;;;;;;;;;2.33;1.00;;;;;13.43;66.19;101460.56;5029917;28;45462;-67
2022/12/26 12:42:09;;;;;;;;;5.33;1.67;;;;;13.39;65.89;101464.91;5029216;28;45627;-66
2022/12/26 12:44:55;;;;;;;;;1.00;1.00;;;;;13.34;64.21;101473.72;5028663;28;45239;-67
2022/12/26 12:47:57;;;;;;;;;2.00;1.00;;;;;13.08;64.85;101439.00;5036733;28;45387;-66
2022/12/26 12:50:36;;;;;;;;;3.00;2.00;;;;;13.30;63.88;101470.03;5033505;28;45553;-67
2022/12/26 12:53:17;;;;;;;;;1.00;1.00;;;;;13.20;63.58;101473.28;5030716;28;46151;-67
2022/12/26 12:55:51;;;;;;;;;1.67;1.33;;;;;13.04;62.56;101467.53;5036501;28;45382;-65
2022/12/26 12:58:26;;;;;;;;;1.00;1.00;;;;;12.91;62.64;101468.94;5024593;28;45710;-65
2022/12/26 13:00:58;;;;;;;;;3.00;2.67;;;;;12.84;63.14;101463.38;5036846;28;45478;-67
2022/12/26 13:03:26;;;;;;;;;3.00;3.00;;;;;12.80;63.22;101473.13;5036088;28;45716;-67
2022/12/26 13:06:15;;;;;;;;;2.00;1.67;;;;;12.67;62.14;101471.84;5036294;28;45485;-66
2022/12/26 13:08:52;;;;;;;;;2.50;0.00;;;;;12.59;62.45;101473.41;5036202;28;45398;-66
2022/12/26 13:11:35;;;;;;;;;5.67;2.00;;;;;12.49;62.88;101444.50;5037052;28;45367;-68
2022/12/26 13:14:07;;;;;;;;;1.00;1.00;;;;;12.67;62.33;101473.59;5038940;28;46078;-66
2022/12/26 13:16:42;;;;;;;;;1.00;1.00;;;;;12.72;62.05;101477.34;5036712;28;45470;-66
2022/12/26 13:19:21;;;;;;;;;0.00;0.00;;;;;12.63;60.19;101459.19;5033969;28;45399;-69
2022/12/26 13:21:50;;;;;;;;;1.00;0.33;;;;;12.61;59.50;101471.66;5035868;28;45450;-66
2022/12/26 13:24:29;;;;;;;;;2.00;2.00;;;;;12.61;60.24;101487.75;5031647;28;46461;-65
2022/12/26 13:27:02;;;;;;;;;0.00;0.00;;;;;12.69;60.15;101506.75;5018259;28;45514;-66
2022/12/26 13:29:30;;;;;;;;;1.00;1.00;;;;;12.67;59.33;101497.72;5035548;28;45479;-67
2022/12/26 13:31:58;;;;;;;;;1.00;1.00;;;;;12.65;59.11;101504.81;5033287;28;45421;-66
2022/12/26 13:34:23;;;;;;;;;0.00;0.00;;;;;12.54;58.95;101485.75;5031609;28;47193;-67
2022/12/26 13:36:51;;;;;;;;;1.00;1.00;;;;;12.63;58.93;101494.06;5032181;28;45719;-67
2022/12/26 13:39:26;;;;;;;;;0.33;0.33;;;;;12.64;58.49;101493.19;5029043;28;45392;-68
2022/12/26 13:45:52;;;;;;;;;1.00;1.00;;;;;12.72;58.25;101502.38;5035974;28;45214;-68
2022/12/26 13:48:17;;;;;;;;;3.33;1.00;;;;;12.66;57.59;101502.19;5024656;28;45406;-67
2022/12/26 13:50:51;;;;;;;;;0.00;0.00;;;;;12.63;58.59;101498.50;5036512;28;45453;-65
2022/12/26 13:53:40;;;;;;;;;1.00;1.00;;;;;12.73;58.18;101509.53;5024156;28;45376;-68
2022/12/26 13:56:18;;;;;;;;;0.67;0.67;;;;;12.81;58.11;101511.56;5029429;28;46278;-68
2022/12/26 13:59:10;;;;;;;;;2.33;2.00;;;;;12.81;57.32;101519.59;5033141;28;45523;-66